Time;durP1;ratioP1;P1;durP2;ratioP2;P2;SDS_P1;SDS_P2;PMS_P1;PMS_P2;Temp;Humidity;BMP_temperature;BMP_pressure;BME280_temperature;BME280_humidity;BME280_pressure;Samples;Min_cycle;Max_cycle;Signal;HPM_P1;HPM_P2
2021/09/09 00:02:02;;;;;;;11.27;8.90;;;;;;;17.37;66.77;99145.69;5067442;28;20071;-73
2021/09/09 00:04:28;;;;;;;11.80;9.15;;;;;;;17.37;66.70;99135.03;5068498;28;20106;-74
2021/09/09 00:06:53;;;;;;;14.40;9.43;;;;;;;17.38;66.31;99128.72;5068370;28;20036;-74
2021/09/09 00:09:20;;;;;;;11.88;8.18;;;;;;;17.42;66.28;99126.63;5067289;28;20101;-74
2021/09/09 00:11:45;;;;;;;12.32;8.63;;;;;;;17.46;66.20;99128.06;5067931;28;20115;-74
2021/09/09 00:14:11;;;;;;;12.23;8.70;;;;;;;17.49;66.46;99126.94;5065989;28;20116;-74
2021/09/09 00:16:36;;;;;;;11.93;7.72;;;;;;;17.51;66.22;99122.31;5065927;28;20037;-75
2021/09/09 00:19:03;;;;;;;11.25;7.50;;;;;;;17.53;65.86;99123.88;5068463;28;20150;-75
2021/09/09 00:21:29;;;;;;;10.45;7.82;;;;;;;17.55;65.77;99119.25;5067079;28;20036;-74
2021/09/09 00:23:54;;;;;;;14.65;8.20;;;;;;;17.56;65.64;99120.09;5066496;28;20047;-73
2021/09/09 00:26:19;;;;;;;8.90;7.63;;;;;;;17.57;65.05;99111.97;5069523;28;20111;-75
2021/09/09 00:28:45;;;;;;;10.30;7.85;;;;;;;17.58;65.35;99108.31;5070930;28;20055;-74
2021/09/09 00:31:10;;;;;;;10.98;7.90;;;;;;;17.59;65.41;99101.16;5069334;28;20048;-74
2021/09/09 00:33:36;;;;;;;11.43;8.35;;;;;;;17.60;65.33;99097.53;5071075;28;20045;-74
2021/09/09 00:36:02;;;;;;;10.13;8.07;;;;;;;17.60;65.72;99102.84;5068404;28;20036;-75
2021/09/09 00:38:28;;;;;;;10.65;7.72;;;;;;;17.60;65.59;99095.69;5069301;28;20398;-74
2021/09/09 00:40:53;;;;;;;12.50;7.57;;;;;;;17.61;65.49;99093.88;5069941;28;20043;-74
2021/09/09 00:43:18;;;;;;;8.95;7.05;;;;;;;17.58;65.25;99088.81;5070951;28;20485;-74
2021/09/09 00:45:52;;;;;;;12.27;8.00;;;;;;;17.63;64.32;99091.06;5071841;28;20056;-74
2021/09/09 00:48:18;;;;;;;10.45;7.40;;;;;;;17.60;65.22;99082.38;5091870;28;20139;-75
2021/09/09 00:50:43;;;;;;;10.77;6.95;;;;;;;17.62;65.18;99084.03;5092421;28;20490;-73
2021/09/09 00:53:08;;;;;;;12.77;9.05;;;;;;;17.63;64.94;99073.25;5090482;28;20028;-74
2021/09/09 00:55:34;;;;;;;10.07;7.45;;;;;;;17.59;64.45;99067.34;5091355;28;20117;-74
2021/09/09 00:57:59;;;;;;;9.02;7.45;;;;;;;17.58;64.91;99070.16;5091663;28;20043;-75
2021/09/09 01:00:25;;;;;;;11.00;7.03;;;;;;;17.57;64.46;99068.44;5073397;28;20516;-75
2021/09/09 01:02:50;;;;;;;8.00;6.63;;;;;;;17.55;64.72;99060.63;5083213;28;20043;-75
2021/09/09 01:05:15;;;;;;;11.50;7.85;;;;;;;17.57;65.04;99060.47;5090992;28;20445;-75
2021/09/09 01:07:41;;;;;;;10.23;6.50;;;;;;;17.58;65.46;99060.34;5089615;28;20055;-75
2021/09/09 01:10:07;;;;;;;9.27;7.45;;;;;;;17.60;64.97;99062.88;5090349;28;20036;-75
2021/09/09 01:12:32;;;;;;;10.63;7.45;;;;;;;17.62;64.86;99063.56;5090280;28;20035;-75
2021/09/09 01:14:58;;;;;;;11.32;7.28;;;;;;;17.65;64.03;99060.63;5090807;28;20036;-75
2021/09/09 01:17:23;;;;;;;9.43;7.53;;;;;;;17.65;64.04;99057.13;5090533;28;20077;-75
2021/09/09 01:19:48;;;;;;;8.57;7.05;;;;;;;17.63;64.39;99059.91;5089420;28;20051;-74
2021/09/09 01:22:14;;;;;;;12.77;7.88;;;;;;;17.58;64.70;99055.00;5089847;28;20036;-74
2021/09/09 01:24:39;;;;;;;9.73;7.13;;;;;;;17.58;64.46;99052.34;5090415;28;20039;-75
2021/09/09 01:27:06;;;;;;;12.07;7.47;;;;;;;17.58;64.78;99056.84;5090400;28;20493;-75
2021/09/09 01:29:38;;;;;;;9.60;7.68;;;;;;;17.54;64.96;99050.09;5090313;28;20058;-73
2021/09/09 01:32:04;;;;;;;9.43;6.55;;;;;;;17.51;64.72;99051.19;5088771;28;20081;-75
2021/09/09 01:34:30;;;;;;;8.70;6.97;;;;;;;17.50;64.76;99049.53;5090971;28;20028;-74
2021/09/09 01:36:56;;;;;;;14.25;8.32;;;;;;;17.45;64.79;99042.91;5090551;28;20032;-74
2021/09/09 01:39:22;;;;;;;11.07;7.75;;;;;;;17.46;64.80;99045.44;5090520;28;20115;-74
2021/09/09 01:41:52;;;;;;;11.95;7.30;;;;;;;17.43;64.89;99043.06;5090230;28;20560;-74
2021/09/09 01:44:18;;;;;;;8.63;6.70;;;;;;;17.39;65.51;99050.47;5090716;28;20036;-74
2021/09/09 01:46:43;;;;;;;10.43;7.03;;;;;;;17.37;65.16;99043.59;5090448;28;20043;-76
2021/09/09 01:49:10;;;;;;;10.73;8.15;;;;;;;17.39;64.73;99039.81;5090046;28;20047;-75
2021/09/09 01:51:35;;;;;;;7.65;6.65;;;;;;;17.37;64.95;99038.25;5089808;28;20032;-75
2021/09/09 01:54:01;;;;;;;11.38;7.53;;;;;;;17.39;64.52;99055.81;5090627;28;20036;-72
2021/09/09 01:56:26;;;;;;;13.38;7.10;;;;;;;17.38;64.47;99045.31;5090349;28;20028;-72
2021/09/09 01:58:52;;;;;;;9.32;6.57;;;;;;;17.36;64.89;99042.75;5090980;28;20066;-74
2021/09/09 02:01:18;;;;;;;9.00;6.60;;;;;;;17.36;65.21;99044.59;5090118;28;20047;-74
2021/09/09 02:03:44;;;;;;;9.20;7.18;;;;;;;17.37;64.74;99048.94;5090049;28;20040;-74
2021/09/09 02:06:09;;;;;;;8.32;6.85;;;;;;;17.35;64.58;99048.22;5090209;28;20046;-73
2021/09/09 02:08:34;;;;;;;9.20;6.88;;;;;;;17.33;64.68;99043.03;5090225;28;20035;-74
2021/09/09 02:11:00;;;;;;;10.48;8.00;;;;;;;17.31;65.09;99037.00;5088339;28;20440;-74
2021/09/09 02:13:25;;;;;;;9.32;6.88;;;;;;;17.29;65.40;99044.28;5090306;28;20442;-75
2021/09/09 02:15:50;;;;;;;9.05;6.78;;;;;;;17.29;65.02;99046.09;5091407;28;20582;-74
2021/09/09 02:18:16;;;;;;;10.57;6.85;;;;;;;17.27;65.28;99043.56;5091086;28;20401;-74
2021/09/09 02:20:41;;;;;;;9.80;7.00;;;;;;;17.26;65.18;99049.06;5078198;28;20414;-75
2021/09/09 02:23:06;;;;;;;8.00;6.10;;;;;;;17.21;65.53;99037.97;5070485;28;20086;-74
2021/09/09 02:25:32;;;;;;;9.23;7.22;;;;;;;17.16;65.83;99046.38;5070235;28;20056;-74
2021/09/09 02:27:57;;;;;;;9.38;6.68;;;;;;;17.12;65.64;99047.59;5068546;28;20037;-75
2021/09/09 02:30:23;;;;;;;8.35;6.45;;;;;;;17.12;66.02;99048.44;5069717;28;20119;-75
2021/09/09 02:32:48;;;;;;;10.27;6.18;;;;;;;17.14;66.08;99040.31;5069524;28;20036;-74
2021/09/09 02:35:14;;;;;;;8.82;7.07;;;;;;;17.12;65.72;99035.13;5069625;28;20056;-75
2021/09/09 02:37:41;;;;;;;8.52;6.20;;;;;;;17.13;66.36;99038.63;5069951;28;20063;-75
2021/09/09 02:40:07;;;;;;;8.55;5.95;;;;;;;17.08;66.62;99043.50;5069745;28;20114;-75
2021/09/09 02:42:33;;;;;;;10.95;6.72;;;;;;;17.01;66.61;99035.25;5068806;28;20043;-75
2021/09/09 02:44:59;;;;;;;10.00;7.45;;;;;;;16.99;66.86;99037.19;5069825;28;20120;-75
2021/09/09 02:47:24;;;;;;;10.40;7.10;;;;;;;17.02;66.56;99033.41;5068649;28;20090;-73
2021/09/09 02:49:49;;;;;;;11.10;7.32;;;;;;;17.01;66.85;99032.59;5070149;28;20530;-75
2021/09/09 02:52:15;;;;;;;9.50;6.68;;;;;;;17.00;66.75;99043.34;5069076;28;20052;-75
2021/09/09 02:54:40;;;;;;;9.23;7.05;;;;;;;16.99;67.00;99034.53;5069317;28;20486;-74
2021/09/09 02:57:06;;;;;;;10.15;6.88;;;;;;;16.98;66.99;99040.81;5069486;28;20101;-75
2021/09/09 02:59:31;;;;;;;11.27;6.35;;;;;;;16.95;66.83;99039.25;5069052;28;20037;-74
2021/09/09 03:01:56;;;;;;;9.73;6.72;;;;;;;16.94;66.91;99037.59;5067342;28;20028;-75
2021/09/09 03:04:22;;;;;;;9.35;6.45;;;;;;;16.94;66.85;99032.25;5069896;28;20056;-75
2021/09/09 03:06:47;;;;;;;9.80;7.07;;;;;;;16.92;67.29;99034.22;5070547;28;20036;-75
2021/09/09 03:09:12;;;;;;;9.90;7.25;;;;;;;16.89;67.33;99034.50;5067355;28;20400;-75
2021/09/09 03:11:38;;;;;;;9.23;7.68;;;;;;;16.91;67.62;99032.53;5068251;28;20497;-75
2021/09/09 03:14:03;;;;;;;10.35;7.75;;;;;;;16.88;67.49;99034.63;5068629;28;20044;-74
2021/09/09 03:16:28;;;;;;;12.50;7.05;;;;;;;16.84;67.62;99035.88;5068965;28;20401;-73
2021/09/09 03:18:54;;;;;;;17.50;6.72;;;;;;;16.81;68.23;99030.78;5068615;28;20397;-75
2021/09/09 03:21:19;;;;;;;9.55;6.95;;;;;;;16.77;67.99;99030.22;5068432;28;20122;-74
2021/09/09 03:23:45;;;;;;;10.18;6.95;;;;;;;16.73;68.54;99031.44;5068409;28;20055;-75
2021/09/09 03:26:10;;;;;;;14.18;7.78;;;;;;;16.72;68.32;99024.44;5068779;28;20043;-74
2021/09/09 03:28:36;;;;;;;10.02;7.90;;;;;;;16.70;68.10;99029.03;5068600;28;20139;-75
2021/09/09 03:31:01;;;;;;;14.35;6.65;;;;;;;16.69;68.33;99024.72;5068068;28;20048;-74
2021/09/09 03:33:26;;;;;;;9.35;7.47;;;;;;;16.68;68.20;99020.34;5067110;28;20612;-75
2021/09/09 03:35:52;;;;;;;8.65;6.70;;;;;;;16.68;68.62;99015.03;5069030;28;20493;-75
2021/09/09 03:38:17;;;;;;;9.63;6.95;;;;;;;16.67;68.41;99011.53;5068096;28;20029;-74
2021/09/09 03:40:42;;;;;;;10.30;7.90;;;;;;;16.71;68.43;99017.41;5061014;28;20042;-75
2021/09/09 03:43:07;;;;;;;9.85;7.65;;;;;;;16.72;68.79;99013.78;5081014;28;20477;-73
2021/09/09 03:45:33;;;;;;;10.30;7.35;;;;;;;16.75;68.53;99016.19;5068518;28;20041;-74
2021/09/09 03:47:58;;;;;;;16.77;8.00;;;;;;;16.75;68.58;99025.00;5068612;28;20563;-74
2021/09/09 03:50:24;;;;;;;14.45;7.32;;;;;;;16.75;68.96;99021.50;5063507;28;20041;-74
2021/09/09 03:52:49;;;;;;;10.65;7.93;;;;;;;16.73;69.03;99018.97;5066855;28;20047;-73
2021/09/09 03:55:14;;;;;;;8.48;7.18;;;;;;;16.70;69.00;99016.56;5067438;28;20032;-74
2021/09/09 03:57:40;;;;;;;10.75;8.00;;;;;;;16.71;68.98;99022.75;5069035;28;20033;-72
2021/09/09 04:00:07;;;;;;;9.02;7.00;;;;;;;16.74;68.90;99026.00;5072987;28;20040;-72
2021/09/09 04:02:32;;;;;;;8.20;6.88;;;;;;;16.77;69.15;99029.38;5076113;28;20052;-72
2021/09/09 04:04:58;;;;;;;13.38;7.45;;;;;;;16.73;68.73;99018.13;5078856;28;20470;-73
2021/09/09 04:07:23;;;;;;;9.07;6.85;;;;;;;16.74;69.04;99022.50;5077744;28;20032;-73
2021/09/09 04:09:49;;;;;;;11.48;7.28;;;;;;;16.72;69.43;99027.09;5075892;28;20105;-75
2021/09/09 04:12:14;;;;;;;7.70;6.38;;;;;;;16.71;69.49;99022.75;5071718;28;20504;-74
2021/09/09 04:14:39;;;;;;;8.45;6.65;;;;;;;16.75;69.12;99032.16;5072734;28;20033;-74
2021/09/09 04:17:05;;;;;;;11.07;6.82;;;;;;;16.71;69.29;99028.94;5072461;28;20036;-75
2021/09/09 04:19:30;;;;;;;10.85;7.13;;;;;;;16.68;69.10;99031.84;5070744;28;20112;-74
2021/09/09 04:21:56;;;;;;;10.98;7.43;;;;;;;16.69;69.55;99036.19;5071085;28;20070;-74
2021/09/09 04:24:21;;;;;;;9.30;7.05;;;;;;;16.72;68.94;99032.44;5071677;28;20040;-74
2021/09/09 04:26:47;;;;;;;14.55;7.35;;;;;;;16.68;69.58;99038.97;5071104;28;20029;-74
2021/09/09 04:29:12;;;;;;;9.38;7.10;;;;;;;16.63;69.59;99028.72;5071630;28;20036;-74
2021/09/09 04:31:39;;;;;;;9.18;6.68;;;;;;;16.65;69.67;99025.94;5066492;28;20033;-74
2021/09/09 04:34:05;;;;;;;7.97;6.88;;;;;;;16.66;69.57;99022.28;5071234;28;20036;-74
2021/09/09 04:36:30;;;;;;;10.30;7.28;;;;;;;16.70;69.22;99011.25;5071443;28;20522;-75
2021/09/09 04:38:55;;;;;;;8.43;6.93;;;;;;;16.73;69.31;99013.63;5070885;28;20039;-72
2021/09/09 04:41:21;;;;;;;10.88;6.38;;;;;;;16.78;68.80;99015.94;5071490;28;20366;-73
2021/09/09 04:43:46;;;;;;;8.32;7.13;;;;;;;16.86;68.59;99008.16;5071206;28;20109;-74
2021/09/09 04:46:12;;;;;;;10.30;8.15;;;;;;;16.93;68.75;99011.09;5071822;28;20064;-74
2021/09/09 04:48:37;;;;;;;8.95;6.93;;;;;;;16.91;69.07;99013.91;5071916;28;20430;-74
2021/09/09 04:51:03;;;;;;;10.80;8.20;;;;;;;16.92;68.86;99017.41;5070857;28;20032;-75
2021/09/09 04:53:28;;;;;;;9.27;7.30;;;;;;;16.91;69.08;99016.56;5069508;28;20109;-75
2021/09/09 04:55:54;;;;;;;11.65;7.63;;;;;;;16.95;68.95;99017.97;5072107;28;20040;-74
2021/09/09 04:58:20;;;;;;;14.52;8.80;;;;;;;16.95;69.03;99020.63;5071719;28;20033;-76
2021/09/09 05:00:45;;;;;;;14.10;9.07;;;;;;;16.97;69.45;99011.69;5068198;28;20045;-75
2021/09/09 05:03:11;;;;;;;12.13;7.80;;;;;;;16.95;69.47;99007.31;5051369;28;20373;-74
2021/09/09 05:05:36;;;;;;;11.07;7.80;;;;;;;17.03;69.13;99003.13;5045257;28;20044;-74
2021/09/09 05:08:01;;;;;;;9.18;8.05;;;;;;;17.04;69.14;99008.34;5060058;28;20056;-69
2021/09/09 05:10:27;;;;;;;9.95;7.80;;;;;;;17.10;69.13;99015.75;5061712;28;20469;-69
2021/09/09 05:12:53;;;;;;;11.23;6.80;;;;;;;17.18;69.08;99020.44;5058899;28;20041;-71
2021/09/09 05:15:18;;;;;;;10.07;8.63;;;;;;;17.17;69.41;99014.25;5067619;28;20549;-70
2021/09/09 05:17:43;;;;;;;9.63;8.40;;;;;;;17.16;69.49;99003.75;5070172;28;20032;-70
2021/09/09 05:20:09;;;;;;;13.07;7.80;;;;;;;17.12;69.70;99019.13;5070812;28;20127;-71
2021/09/09 05:22:35;;;;;;;8.95;6.75;;;;;;;17.14;69.65;99014.53;5068664;28;20064;-70
2021/09/09 05:25:01;;;;;;;14.45;8.75;;;;;;;17.17;69.27;99022.22;5070285;28;20039;-71
2021/09/09 05:27:27;;;;;;;10.02;8.73;;;;;;;17.16;69.69;99019.72;5070905;28;20037;-71
2021/09/09 05:29:52;;;;;;;13.60;8.55;;;;;;;17.12;70.03;99019.13;5069687;28;20124;-71
2021/09/09 05:32:18;;;;;;;12.25;7.28;;;;;;;17.15;69.54;99016.22;5069931;28;20032;-70
2021/09/09 05:34:43;;;;;;;16.95;8.52;;;;;;;17.17;70.07;99022.22;5070337;28;20089;-69
2021/09/09 05:37:08;;;;;;;12.23;8.15;;;;;;;17.19;69.76;99023.94;5070016;28;20484;-69
2021/09/09 05:39:34;;;;;;;10.45;9.35;;;;;;;17.23;69.91;99026.19;5070196;28;20104;-70
2021/09/09 05:41:59;;;;;;;12.85;8.65;;;;;;;17.26;69.71;99025.91;5068441;28;20036;-69
2021/09/09 05:44:24;;;;;;;11.07;8.15;;;;;;;17.28;69.71;99031.97;5069951;28;20512;-69
2021/09/09 05:46:50;;;;;;;12.02;7.65;;;;;;;17.33;69.56;99026.22;5070365;28;20486;-69
2021/09/09 05:49:15;;;;;;;11.65;8.70;;;;;;;17.39;69.62;99026.50;5070335;28;20085;-70
2021/09/09 05:51:40;;;;;;;14.32;8.43;;;;;;;17.44;69.47;99025.25;5069217;28;20029;-70
2021/09/09 05:54:06;;;;;;;10.57;7.10;;;;;;;17.48;69.76;99022.16;5070027;28;20044;-70
2021/09/09 05:56:31;;;;;;;14.30;8.68;;;;;;;17.53;69.72;99022.59;5070446;28;20037;-70
2021/09/09 05:58:56;;;;;;;12.82;7.32;;;;;;;17.60;69.51;99029.06;5070038;28;20036;-69
2021/09/09 06:01:24;;;;;;;14.30;8.30;;;;;;;17.70;69.25;99025.56;5069096;28;20032;-71
2021/09/09 06:03:49;;;;;;;13.05;9.88;;;;;;;17.76;69.12;99020.50;5060466;28;20033;-70
2021/09/09 06:06:16;;;;;;;17.58;10.10;;;;;;;17.87;69.13;99029.38;5068408;28;20040;-70
2021/09/09 06:08:43;;;;;;;9.25;7.28;;;;;;;17.96;68.33;99016.03;5070576;28;20043;-69
2021/09/09 06:11:09;;;;;;;10.80;7.55;;;;;;;18.10;68.01;99016.59;5069102;28;20041;-69
2021/09/09 06:13:34;;;;;;;11.70;8.13;;;;;;;18.16;67.25;99013.34;5068688;28;20047;-69
2021/09/09 06:15:59;;;;;;;15.38;7.25;;;;;;;18.32;66.53;99010.09;5070438;28;20029;-70
2021/09/09 06:18:25;;;;;;;11.68;6.95;;;;;;;18.49;65.53;99014.69;5070958;28;20033;-70
2021/09/09 06:20:50;;;;;;;12.15;7.25;;;;;;;18.60;66.29;99009.16;5069524;28;20516;-70
2021/09/09 06:23:15;;;;;;;13.38;6.22;;;;;;;18.74;65.59;99015.84;5068129;28;20036;-70
2021/09/09 06:25:41;;;;;;;10.65;6.88;;;;;;;18.92;64.73;99015.94;5069371;28;20040;-70
2021/09/09 06:28:06;;;;;;;16.17;7.78;;;;;;;19.08;64.16;99023.34;5068347;28;20037;-70
2021/09/09 06:30:32;;;;;;;11.80;7.40;;;;;;;19.20;63.93;99027.50;5070267;28;20037;-70
2021/09/09 06:32:57;;;;;;;10.80;6.53;;;;;;;19.33;63.12;99024.44;5069479;28;20029;-70
2021/09/09 06:35:23;;;;;;;9.30;6.80;;;;;;;19.49;61.44;99021.09;5070904;28;20036;-71
2021/09/09 06:37:48;;;;;;;10.70;6.80;;;;;;;19.66;60.95;99019.44;5070321;28;20028;-69
2021/09/09 06:40:14;;;;;;;9.73;6.63;;;;;;;19.84;60.64;99025.69;5069656;28;20036;-69
2021/09/09 06:42:40;;;;;;;9.38;6.68;;;;;;;19.98;60.46;99005.53;5068998;28;20116;-69
2021/09/09 06:45:07;;;;;;;14.73;6.75;;;;;;;20.05;61.74;99011.13;5070526;28;20098;-69
2021/09/09 06:47:33;;;;;;;11.32;7.78;;;;;;;20.07;62.76;99014.50;5070823;28;20457;-71
2021/09/09 06:49:58;;;;;;;7.65;6.70;;;;;;;20.10;62.76;99011.50;5069427;28;20115;-70
2021/09/09 06:52:24;;;;;;;10.82;8.02;;;;;;;20.17;61.83;99015.22;5069536;28;20124;-69
2021/09/09 06:54:50;;;;;;;10.73;6.55;;;;;;;20.28;62.06;99019.47;5069043;28;20039;-71
2021/09/09 06:57:15;;;;;;;14.07;7.15;;;;;;;20.45;61.87;99017.75;5070556;28;20139;-69
2021/09/09 06:59:40;;;;;;;14.00;7.85;;;;;;;20.55;59.88;99015.84;5069131;28;20070;-69
2021/09/09 07:02:06;;;;;;;13.60;7.45;;;;;;;20.71;59.99;99015.94;5068234;28;20039;-69
2021/09/09 07:04:31;;;;;;;9.93;6.47;;;;;;;20.83;60.26;99007.63;5067347;28;20040;-69
2021/09/09 07:06:57;;;;;;;8.88;6.85;;;;;;;20.98;59.59;99014.06;5069014;28;20036;-70
2021/09/09 07:09:22;;;;;;;7.55;6.53;;;;;;;21.06;59.96;99019.44;5068580;28;20116;-70
2021/09/09 07:11:47;;;;;;;10.38;7.35;;;;;;;21.08;61.41;99012.09;5067965;28;20124;-70
2021/09/09 07:14:13;;;;;;;12.05;6.32;;;;;;;21.16;60.99;99024.69;5068778;28;20029;-70
2021/09/09 07:16:38;;;;;;;9.57;7.03;;;;;;;21.25;59.45;99029.06;5069133;28;20032;-73
2021/09/09 07:19:03;;;;;;;12.35;7.03;;;;;;;21.35;59.84;99028.94;5068705;28;20029;-69
2021/09/09 07:21:29;;;;;;;8.68;5.55;;;;;;;21.49;59.31;99040.91;5067790;28;20039;-69
2021/09/09 07:23:54;;;;;;;16.23;7.82;;;;;;;21.61;59.73;99042.28;5068772;28;20037;-69
2021/09/09 07:26:20;;;;;;;13.70;6.47;;;;;;;21.70;59.07;99043.97;5068727;28;20024;-70
2021/09/09 07:28:45;;;;;;;10.35;7.63;;;;;;;21.83;59.44;99043.47;5068361;28;20137;-70
2021/09/09 07:31:11;;;;;;;10.65;6.68;;;;;;;21.97;58.88;99041.97;5067248;28;20044;-70
2021/09/09 07:33:36;;;;;;;12.40;6.82;;;;;;;22.11;58.28;99041.31;5068272;28;20028;-69
2021/09/09 07:36:01;;;;;;;10.35;6.47;;;;;;;22.22;58.17;99051.75;5067252;28;20347;-71
2021/09/09 07:38:27;;;;;;;11.35;6.85;;;;;;;22.36;57.95;99038.66;5068331;28;20123;-70
2021/09/09 07:40:52;;;;;;;10.18;5.78;;;;;;;22.47;57.93;99049.91;5068580;28;20162;-70
2021/09/09 07:43:18;;;;;;;9.70;6.93;;;;;;;22.57;58.06;99051.53;5066775;28;20501;-71
2021/09/09 07:45:43;;;;;;;10.60;6.50;;;;;;;22.61;57.91;99051.03;5068403;28;20469;-71
2021/09/09 07:48:09;;;;;;;8.05;6.00;;;;;;;22.61;58.11;99053.72;5068327;28;20039;-70
2021/09/09 07:50:34;;;;;;;12.48;8.10;;;;;;;22.63;57.67;99053.56;5068547;28;20521;-72
2021/09/09 07:52:59;;;;;;;8.70;6.75;;;;;;;22.73;57.54;99057.72;5067400;28;20024;-69
2021/09/09 07:55:26;;;;;;;7.75;6.78;;;;;;;22.78;57.55;99057.22;5068591;28;20037;-71
2021/09/09 07:57:51;;;;;;;14.48;6.93;;;;;;;22.86;57.57;99057.19;5067944;28;20370;-71
2021/09/09 08:00:17;;;;;;;9.18;6.72;;;;;;;22.94;57.59;99061.72;5068326;28;20032;-69
2021/09/09 08:02:42;;;;;;;13.35;7.22;;;;;;;23.02;57.59;99059.03;5066972;28;20445;-70
2021/09/09 08:05:09;;;;;;;9.38;6.47;;;;;;;23.19;57.06;99057.13;5066581;28;20033;-70
2021/09/09 08:07:41;;;;;;;11.43;6.78;;;;;;;23.24;57.16;99062.81;5068412;28;20055;-70
2021/09/09 08:10:08;;;;;;;9.90;6.82;;;;;;;23.34;56.67;99067.97;5068017;28;20075;-70
2021/09/09 08:12:34;;;;;;;10.23;7.78;;;;;;;23.45;56.68;99066.75;5067561;28;20496;-71
2021/09/09 08:14:59;;;;;;;9.25;6.25;;;;;;;23.54;56.70;99069.22;5067041;28;20107;-70
2021/09/09 08:17:25;;;;;;;11.95;7.85;;;;;;;23.73;56.18;99075.22;5068552;28;20040;-71
2021/09/09 08:19:50;;;;;;;9.05;6.55;;;;;;;23.79;56.38;99072.63;5069264;28;20032;-71
2021/09/09 08:22:15;;;;;;;14.57;8.05;;;;;;;23.90;55.85;99073.22;5067844;28;20077;-70
2021/09/09 08:24:41;;;;;;;11.35;7.47;;;;;;;24.00;55.57;99073.84;5067674;28;20127;-71
2021/09/09 08:27:06;;;;;;;9.30;6.93;;;;;;;23.97;56.20;99071.50;5068666;28;20034;-70
2021/09/09 08:29:32;;;;;;;11.63;7.00;;;;;;;24.10;56.12;99066.38;5066558;28;20044;-70
2021/09/09 08:31:57;;;;;;;11.90;7.13;;;;;;;24.21;55.96;99063.22;5066252;28;20142;-70
2021/09/09 08:34:23;;;;;;;13.30;6.60;;;;;;;24.36;55.92;99076.75;5067663;28;20055;-70
2021/09/09 08:36:48;;;;;;;11.90;7.13;;;;;;;24.50;55.46;99077.00;5067016;28;20040;-70
2021/09/09 08:39:14;;;;;;;11.50;8.02;;;;;;;24.58;54.80;99066.13;5067816;28;20688;-70
2021/09/09 08:41:41;;;;;;;13.63;8.80;;;;;;;24.63;55.05;99066.41;5066867;28;20408;-70
2021/09/09 08:44:07;;;;;;;14.98;6.68;;;;;;;24.77;54.92;99078.25;5067745;28;20136;-70
2021/09/09 08:46:32;;;;;;;7.90;6.75;;;;;;;24.77;55.23;99078.25;5067450;28;20107;-70
2021/09/09 08:48:59;;;;;;;9.85;6.78;;;;;;;24.76;54.88;99073.88;5072034;28;20111;-70
2021/09/09 08:51:25;;;;;;;13.20;8.25;;;;;;;24.77;55.13;99072.88;5083253;28;20028;-70
2021/09/09 08:53:50;;;;;;;10.05;6.65;;;;;;;24.80;54.91;99073.31;5089884;28;20089;-70
2021/09/09 08:56:16;;;;;;;11.95;7.25;;;;;;;24.89;55.09;99071.38;5091365;28;20028;-71
2021/09/09 08:58:41;;;;;;;8.57;6.38;;;;;;;25.06;54.07;99080.97;5091657;28;20028;-70
2021/09/09 09:01:17;;;;;;;10.50;7.55;;;;;;;25.26;53.79;99089.34;5087618;28;20056;-70
2021/09/09 09:04:11;;;;;;;12.23;7.20;;;;;;;25.54;53.00;99082.44;5047629;28;20397;-70
2021/09/09 09:06:37;;;;;;;8.82;6.50;;;;;;;25.91;51.86;99089.53;5073357;28;20550;-69
2021/09/09 09:09:04;;;;;;;9.18;6.63;;;;;;;26.19;51.05;99086.06;5084710;28;20412;-69
2021/09/09 09:11:40;;;;;;;10.43;6.53;;;;;;;26.65;50.17;99086.47;5084508;28;20050;-69
2021/09/09 09:14:08;;;;;;;12.15;7.10;;;;;;;26.49;50.83;99090.28;5083089;28;20113;-69
2021/09/09 09:16:34;;;;;;;9.98;7.22;;;;;;;26.33;51.28;99085.16;5082471;28;20055;-71
2021/09/09 09:19:01;;;;;;;10.40;7.22;;;;;;;26.52;50.86;99081.78;5084840;28;20036;-71
2021/09/09 09:21:28;;;;;;;13.15;7.72;;;;;;;26.71;50.70;99082.16;5082198;28;20044;-70
2021/09/09 09:23:55;;;;;;;10.43;7.18;;;;;;;26.59;51.38;99083.75;5083269;28;20113;-70
2021/09/09 09:26:21;;;;;;;12.68;7.22;;;;;;;26.39;52.02;99087.09;5082469;28;20528;-70
2021/09/09 09:28:55;;;;;;;8.85;6.40;;;;;;;26.19;52.39;99088.75;5082718;28;20056;-70
2021/09/09 09:31:22;;;;;;;11.77;7.73;;;;;;;25.90;53.03;99093.25;5081996;28;20560;-70
2021/09/09 09:33:58;;;;;;;11.35;6.25;;;;;;;25.79;53.02;99094.56;5082923;28;20062;-70
2021/09/09 09:36:25;;;;;;;12.73;6.88;;;;;;;25.72;53.18;99096.38;5082676;28;20043;-70
2021/09/09 09:38:54;;;;;;;15.10;6.88;;;;;;;25.56;53.21;99105.50;5082810;28;20136;-71
2021/09/09 09:41:22;;;;;;;10.65;5.40;;;;;;;25.43;53.09;99105.34;5081729;28;20604;-70
2021/09/09 09:43:59;;;;;;;10.07;5.82;;;;;;;25.42;53.21;99111.75;5082313;28;20063;-71
2021/09/09 09:46:33;;;;;;;9.55;5.93;;;;;;;25.39;53.08;99106.75;5082511;28;20038;-71
2021/09/09 09:49:18;;;;;;;9.95;6.70;;;;;;;25.35;53.18;99100.91;5084444;28;20366;-70
2021/09/09 09:51:46;;;;;;;7.25;6.07;;;;;;;25.23;53.32;99107.78;5081728;28;20440;-70
2021/09/09 09:54:14;;;;;;;14.00;6.00;;;;;;;25.16;53.58;99104.13;5082240;28;20081;-70
2021/09/09 09:56:41;;;;;;;8.90;6.15;;;;;;;25.10;53.67;99096.78;5082532;27;20115;-70
2021/09/09 09:59:06;;;;;;;7.60;6.45;;;;;;;25.07;53.90;99098.81;5081326;28;20036;-70
2021/09/09 10:01:34;;;;;;;11.70;5.80;;;;;;;25.17;54.20;99097.72;5084012;28;20036;-70
2021/09/09 10:04:04;;;;;;;8.20;5.95;;;;;;;25.31;53.97;99096.06;5084054;28;20038;-70
2021/09/09 10:06:32;;;;;;;10.25;6.38;;;;;;;25.39;53.92;99095.94;5084213;28;20089;-69
2021/09/09 10:08:58;;;;;;;10.60;6.28;;;;;;;26.02;52.09;99097.13;5090783;28;20059;-70
2021/09/09 10:11:23;;;;;;;7.22;5.18;;;;;;;27.61;47.48;99091.19;5088033;28;20036;-70
2021/09/09 10:13:49;;;;;;;7.65;4.97;;;;;;;28.88;44.52;99090.34;5090936;28;20044;-70
2021/09/09 10:16:16;;;;;;;6.68;3.85;;;;;;;29.44;41.13;99083.56;5090468;28;20497;-71
2021/09/09 10:18:45;;;;;;;8.93;3.33;;;;;;;29.73;40.58;99086.78;5090936;28;20115;-72
2021/09/09 10:21:10;;;;;;;12.38;4.35;;;;;;;30.35;39.79;99084.34;5089901;28;20040;-71
2021/09/09 10:23:36;;;;;;;5.65;3.67;;;;;;;31.09;38.56;99079.06;5090289;28;20054;-71
2021/09/09 10:26:02;;;;;;;9.18;3.58;;;;;;;31.56;37.29;99085.66;5090514;28;20032;-71
2021/09/09 10:28:33;;;;;;;12.07;3.42;;;;;;;32.12;36.31;99094.56;5090535;28;20382;-70
2021/09/09 10:31:09;;;;;;;5.53;3.70;;;;;;;32.34;34.99;99092.09;5090608;28;20143;-71
2021/09/09 10:33:40;;;;;;;9.05;2.90;;;;;;;32.21;35.23;99089.59;5092300;28;20035;-70
2021/09/09 10:36:41;;;;;;;6.80;3.30;;;;;;;32.09;35.25;99092.28;5090191;28;20126;-70
2021/09/09 10:39:19;;;;;;;5.88;3.35;;;;;;;32.28;35.05;99080.22;5080434;28;20054;-70
2021/09/09 10:41:45;;;;;;;5.85;3.58;;;;;;;31.92;35.67;99088.53;5082345;28;20109;-70
2021/09/09 10:44:11;;;;;;;8.70;3.65;;;;;;;31.57;36.51;99081.03;5082753;28;20036;-71
2021/09/09 10:46:38;;;;;;;4.47;3.40;;;;;;;31.29;36.72;99081.56;5083541;28;20028;-71
2021/09/09 10:49:04;;;;;;;5.35;3.55;;;;;;;31.09;37.11;99077.19;5085247;28;20047;-70
2021/09/09 10:51:29;;;;;;;6.47;3.47;;;;;;;30.50;38.29;99089.44;5082854;28;20063;-70
2021/09/09 10:53:56;;;;;;;9.38;3.83;;;;;;;29.78;39.29;99091.56;5081719;28;20922;-71
2021/09/09 10:56:35;;;;;;;4.38;3.35;;;;;;;29.28;40.73;99090.28;5081918;28;20036;-71
2021/09/09 10:59:14;;;;;;;5.30;3.67;;;;;;;29.09;40.92;99091.16;5089907;28;20110;-70
2021/09/09 11:01:44;;;;;;;6.22;4.53;;;;;;;28.94;41.72;99101.41;5068601;28;20039;-71
2021/09/09 11:04:33;;;;;;;7.35;3.95;;;;;;;28.84;42.23;99094.53;5069213;28;20432;-70
2021/09/09 11:07:00;;;;;;;6.90;5.30;;;;;;;28.53;42.84;99094.38;5069201;28;20040;-71
2021/09/09 11:09:27;;;;;;;5.97;4.45;;;;;;;28.35;43.99;99109.31;5067912;28;20390;-71
2021/09/09 11:12:00;;;;;;;6.65;4.05;;;;;;;28.23;44.24;99102.84;5066906;28;20039;-71
2021/09/09 11:14:25;;;;;;;8.13;4.70;;;;;;;28.15;44.77;99103.06;5068494;28;20035;-71
2021/09/09 11:16:51;;;;;;;8.07;4.85;;;;;;;28.15;44.96;99097.63;5064051;28;20029;-71
2021/09/09 11:19:21;;;;;;;7.88;4.72;;;;;;;28.26;44.41;99097.03;5059483;28;20040;-71
2021/09/09 11:21:47;;;;;;;12.02;4.80;;;;;;;28.40;44.58;99097.84;5060194;28;20049;-71
2021/09/09 11:24:14;;;;;;;9.57;4.60;;;;;;;28.43;44.21;99090.16;5060805;28;20040;-71
2021/09/09 11:26:45;;;;;;;9.70;5.13;;;;;;;28.30;44.68;99087.41;5060929;28;20031;-71